Time;durP1;ratioP1;P1;durP2;ratioP2;P2;SDS_P1;SDS_P2;PMS_P1;PMS_P2;Temp;Humidity;BMP_temperature;BMP_pressure;BME280_temperature;BME280_humidity;BME280_pressure;Samples;Min_cycle;Max_cycle;Signal;HPM_P1;HPM_P2
2022/09/30 00:01:40;;;;;;;1.38;1.08;;;7.50;99.90;;;;;;5108342;28;20035;-80
2022/09/30 00:04:12;;;;;;;3.58;1.40;;;7.50;99.90;;;;;;5114583;28;20062;-81
2022/09/30 00:06:38;;;;;;;1.08;0.93;;;7.40;99.90;;;;;;5104257;28;20055;-80
2022/09/30 00:09:04;;;;;;;1.25;1.10;;;7.50;99.90;;;;;;5095883;28;20044;-80
2022/09/30 00:11:33;;;;;;;0.80;0.80;;;7.50;99.90;;;;;;5090476;28;20586;-81
2022/09/30 00:14:00;;;;;;;1.73;1.15;;;7.30;99.90;;;;;;5115354;28;20043;-80
2022/09/30 00:16:28;;;;;;;1.20;0.95;;;7.20;99.90;;;;;;5115064;28;20040;-80
2022/09/30 00:18:55;;;;;;;1.05;0.90;;;7.20;99.90;;;;;;5115506;28;20122;-81
2022/09/30 00:21:22;;;;;;;1.13;0.90;;;7.20;99.90;;;;;;5099914;28;20367;-81
2022/09/30 00:23:48;;;;;;;3.28;1.50;;;7.60;99.90;;;;;;5095339;28;20075;-80
2022/09/30 00:26:19;;;;;;;2.55;1.30;;;7.90;99.90;;;;;;5078120;28;20070;-81
2022/09/30 00:28:49;;;;;;;2.15;1.20;;;7.90;99.90;;;;;;5077824;28;20040;-80
2022/09/30 00:31:16;;;;;;;2.08;1.33;;;7.00;99.90;;;;;;5077383;28;20051;-80
2022/09/30 00:33:42;;;;;;;4.05;1.02;;;6.90;99.90;;;;;;5114413;28;20039;-81
2022/09/30 00:36:09;;;;;;;1.58;0.93;;;7.00;99.90;;;;;;5093223;28;20143;-80
2022/09/30 00:38:35;;;;;;;2.65;1.33;;;6.80;99.90;;;;;;5094724;28;20184;-81
2022/09/30 00:41:02;;;;;;;1.27;0.88;;;6.90;99.90;;;;;;5102476;28;20081;-79
2022/09/30 00:43:52;;;;;;;1.77;1.25;;;6.70;99.90;;;;;;5111282;28;20063;-79
2022/09/30 00:46:23;;;;;;;2.22;1.08;;;7.20;99.90;;;;;;5077423;28;20217;-80
2022/09/30 00:48:53;;;;;;;2.90;1.17;;;6.60;99.90;;;;;;5099594;28;20471;-80
2022/09/30 00:51:42;;;;;;;1.20;0.90;;;6.60;99.90;;;;;;5094118;28;20050;-80
2022/09/30 00:54:22;;;;;;;1.98;1.10;;;6.50;99.90;;;;;;5087216;28;20166;-80
2022/09/30 00:56:54;;;;;;;1.27;1.02;;;6.50;99.90;;;;;;5094578;28;20496;-81
2022/09/30 00:59:28;;;;;;;1.58;1.20;;;6.50;99.90;;;;;;5077195;28;20074;-81
2022/09/30 01:01:54;;;;;;;1.38;0.95;;;6.50;99.90;;;;;;5100990;28;20071;-80
2022/09/30 01:04:23;;;;;;;1.58;1.05;;;6.40;99.90;;;;;;5113600;28;20044;-80
2022/09/30 01:06:49;;;;;;;1.55;0.90;;;6.40;99.90;;;;;;5102511;28;20052;-80
2022/09/30 01:09:16;;;;;;;1.33;0.98;;;6.40;99.90;;;;;;5093798;28;20044;-80
2022/09/30 01:11:42;;;;;;;2.03;1.20;;;6.30;99.90;;;;;;5092892;28;20044;-80
2022/09/30 01:14:13;;;;;;;2.47;1.35;;;6.30;99.90;;;;;;5093830;28;20051;-79
2022/09/30 01:17:05;;;;;;;3.08;1.50;;;6.60;99.90;;;;;;5099883;28;20432;-79
2022/09/30 01:19:57;;;;;;;3.65;2.03;;;7.00;99.90;;;;;;5076830;28;20145;-79
2022/09/30 01:22:43;;;;;;;2.72;1.50;;;6.40;99.90;;;;;;5076280;28;20036;-79
2022/09/30 01:25:12;;;;;;;;;;;6.40;99.90;;;;;;5094328;28;20044;-79
2022/09/30 01:28:05;;;;;;;2.92;1.30;;;6.40;99.90;;;;;;5104316;28;19920;-79
2022/09/30 01:30:49;;;;;;;1.77;1.30;;;;;;;;;;5094273;28;20039;-79
2022/09/30 01:33:31;;;;;;;2.97;1.40;;;;;;;;;;5093517;28;20498;-79
2022/09/30 01:36:15;;;;;;;2.67;1.42;;;6.10;99.90;;;;;;5096158;28;20096;-80
2022/09/30 01:38:58;;;;;;;3.33;1.50;;;6.00;99.90;;;;;;5112132;28;20441;-80
2022/09/30 01:41:49;;;;;;;3.15;1.67;;;6.50;99.90;;;;;;5101416;28;20036;-80
2022/09/30 01:44:29;;;;;;;3.08;1.73;;;6.00;99.90;;;;;;5084252;28;20046;-80
2022/09/30 01:47:07;;;;;;;2.60;1.42;;;5.90;99.90;;;;;;5096542;28;20047;-80
2022/09/30 01:49:52;;;;;;;3.15;1.30;;;6.00;99.90;;;;;;5101671;28;20039;-81
2022/09/30 01:52:35;;;;;;;3.20;1.13;;;6.20;99.90;;;;;;5106598;28;20437;-81
2022/09/30 01:55:05;;;;;;;2.05;1.30;;;5.90;99.90;;;;;;5093015;28;20051;-81
2022/09/30 01:57:34;;;;;;;2.65;1.50;;;6.00;99.90;;;;;;5093993;28;20405;-81
2022/09/30 02:00:06;;;;;;;2.78;1.50;;;5.80;99.90;;;;;;5111123;28;20122;-80
2022/09/30 02:02:38;;;;;;;2.08;1.27;;;5.70;99.90;;;;;;5112991;28;20612;-81
2022/09/30 02:05:22;;;;;;;1.48;1.13;;;6.00;99.90;;;;;;5113678;28;20035;-80
2022/09/30 02:08:04;;;;;;;2.63;1.40;;;5.60;99.90;;;;;;5111245;28;20374;-80
2022/09/30 02:10:45;;;;;;;2.25;1.38;;;5.60;99.90;;;;;;5092931;28;20043;-80
2022/09/30 02:13:24;;;;;;;3.47;1.67;;;5.60;99.90;;;;;;5093054;28;20070;-80
2022/09/30 02:16:00;;;;;;;2.78;1.50;;;5.60;99.90;;;;;;5092728;28;20093;-80
2022/09/30 02:18:40;;;;;;;1.73;1.20;;;5.60;99.90;;;;;;5092113;28;20051;-80
2022/09/30 02:21:08;;;;;;;2.13;1.42;;;5.60;99.90;;;;;;5095592;28;20152;-81
2022/09/30 02:23:40;;;;;;;1.85;1.20;;;5.50;99.90;;;;;;5107121;28;20044;-81
2022/09/30 02:26:20;;;;;;;1.98;1.33;;;5.30;99.90;;;;;;5092539;28;20421;-81
2022/09/30 02:28:58;;;;;;;2.33;1.40;;;5.50;99.90;;;;;;5092860;28;20044;-81
2022/09/30 02:31:27;;;;;;;2.75;1.40;;;5.50;99.90;;;;;;5095430;28;20401;-81
2022/09/30 02:33:58;;;;;;;3.78;1.75;;;5.40;99.90;;;;;;5112133;28;20122;-80
2022/09/30 02:36:47;;;;;;;2.38;1.13;;;5.40;99.90;;;;;;5105155;28;20128;-80
2022/09/30 02:39:38;;;;;;;2.65;1.52;;;5.40;99.90;;;;;;5091397;28;20101;-79
2022/09/30 02:42:20;;;;;;;2.50;1.40;;;5.40;99.90;;;;;;5098184;28;20059;-79
2022/09/30 02:44:50;;;;;;;4.20;1.70;;;5.40;99.90;;;;;;5092341;28;20486;-80
2022/09/30 02:47:44;;;;;;;2.42;1.67;;;5.40;99.90;;;;;;5059191;28;20058;-80
2022/09/30 02:50:25;;;;;;;2.58;1.48;;;5.40;99.90;;;;;;5091295;28;20066;-80
2022/09/30 02:53:07;;;;;;;4.78;1.48;;;5.40;99.90;;;;;;5104431;28;20081;-80
2022/09/30 02:56:01;;;;;;;2.00;1.50;;;5.40;99.90;;;;;;5112447;28;20035;-81
2022/09/30 02:58:28;;;;;;;2.17;1.40;;;5.40;99.90;;;;;;5112547;28;20036;-81
2022/09/30 03:00:56;;;;;;;1.92;1.40;;;5.40;99.90;;;;;;5112839;28;20363;-81
2022/09/30 03:03:48;;;;;;;3.60;1.75;;;5.40;99.90;;;;;;5111684;28;20040;-81
2022/09/30 03:06:14;;;;;;;1.98;1.40;;;5.40;99.90;;;;;;5090044;28;20055;-81
2022/09/30 03:08:40;;;;;;;1.80;1.23;;;5.40;99.90;;;;;;5112408;28;20055;-81
2022/09/30 03:11:06;;;;;;;1.98;1.23;;;5.40;99.90;;;;;;5112435;28;20040;-80
2022/09/30 03:13:51;;;;;;;1.90;1.20;;;5.40;99.90;;;;;;5112463;28;20039;-80
2022/09/30 03:16:47;;;;;;;1.30;0.90;;;5.40;99.90;;;;;;5112341;28;20382;-80
2022/09/30 03:19:31;;;;;;;3.42;1.58;;;5.40;99.90;;;;;;5092023;28;20032;-80
2022/09/30 03:22:03;;;;;;;1.95;1.20;;;5.30;99.90;;;;;;5075137;28;20040;-80
2022/09/30 03:24:37;;;;;;;2.97;1.40;;;5.40;99.90;;;;;;5091955;28;20036;-80
2022/09/30 03:27:24;;;;;;;3.22;1.50;;;5.30;99.90;;;;;;5075317;28;20057;-80
2022/09/30 03:30:00;;;;;;;3.90;1.40;;;5.30;99.90;;;;;;5074612;28;20044;-81
2022/09/30 03:33:03;;;;;;;2.65;1.60;;;5.30;99.90;;;;;;5095315;28;20043;-80
2022/09/30 03:35:34;;;;;;;2.63;1.27;;;5.30;99.90;;;;;;5108014;28;20126;-80
2022/09/30 03:38:12;;;;;;;2.10;1.23;;;5.30;99.90;;;;;;5109472;28;20454;-81
2022/09/30 03:40:52;;;;;;;2.65;1.40;;;5.20;99.90;;;;;;5095698;28;20153;-81
2022/09/30 03:43:31;;;;;;;2.33;1.45;;;5.20;99.90;;;;;;5078530;28;20056;-81
2022/09/30 03:46:10;;;;;;;2.17;1.42;;;5.20;99.90;;;;;;5078639;28;20093;-81
2022/09/30 03:48:39;;;;;;;2.45;1.33;;;5.20;99.90;;;;;;5102005;28;20529;-81
2022/09/30 03:51:06;;;;;;;1.90;1.60;;;5.20;99.90;;;;;;5095773;28;20484;-80
2022/09/30 03:53:38;;;;;;;1.75;1.17;;;5.20;99.90;;;;;;5098802;28;20097;-81
2022/09/30 03:56:04;;;;;;;2.88;1.48;;;5.20;99.90;;;;;;5098622;28;20135;-81
2022/09/30 03:58:30;;;;;;;2.17;1.30;;;5.20;99.90;;;;;;5111369;28;20130;-80
2022/09/30 04:00:56;;;;;;;1.40;1.00;;;5.20;99.90;;;;;;5095936;28;20035;-80
2022/09/30 04:03:22;;;;;;;2.40;1.23;;;5.10;99.90;;;;;;5115939;28;20067;-80
2022/09/30 04:05:48;;;;;;;1.45;1.17;;;5.70;99.90;;;;;;5083009;28;20097;-80
2022/09/30 04:08:15;;;;;;;1.75;1.10;;;5.10;99.90;;;;;;5109189;28;20075;-80
2022/09/30 04:10:42;;;;;;;1.50;1.10;;;5.10;99.90;;;;;;5089439;28;20055;-80
2022/09/30 04:13:08;;;;;;;1.85;1.15;;;5.50;99.90;;;;;;5098710;28;20488;-80
2022/09/30 04:15:35;;;;;;;1.98;1.25;;;5.10;99.90;;;;;;5115500;28;20042;-80
2022/09/30 04:18:01;;;;;;;2.28;1.33;;;5.50;99.90;;;;;;5115584;28;20101;-80
2022/09/30 04:20:28;;;;;;;2.67;1.60;;;5.10;99.90;;;;;;5111209;28;20038;-81
2022/09/30 04:22:59;;;;;;;2.42;1.55;;;5.10;99.90;;;;;;5099515;28;20122;-81
2022/09/30 04:25:26;;;;;;;2.20;1.30;;;5.40;99.90;;;;;;5115275;28;20120;-80
2022/09/30 04:27:52;;;;;;;2.00;1.35;;;5.10;99.90;;;;;;5101903;28;20051;-80
2022/09/30 04:30:18;;;;;;;2.58;1.27;;;5.10;99.90;;;;;;5096388;28;20035;-81
2022/09/30 04:32:44;;;;;;;1.90;1.38;;;5.00;99.90;;;;;;5114944;28;20040;-80
2022/09/30 04:35:13;;;;;;;2.55;1.63;;;5.00;99.90;;;;;;5114713;28;20447;-80
2022/09/30 04:37:46;;;;;;;2.45;1.45;;;5.00;99.90;;;;;;5097397;28;20235;-80
2022/09/30 04:40:14;;;;;;;2.88;1.45;;;5.00;99.90;;;;;;5094576;28;20036;-80
2022/09/30 04:42:41;;;;;;;2.58;1.80;;;5.00;99.90;;;;;;5110692;28;20055;-80
2022/09/30 04:45:09;;;;;;;2.15;1.33;;;4.90;99.90;;;;;;5114780;28;20063;-80
2022/09/30 04:47:35;;;;;;;2.78;1.70;;;4.90;99.90;;;;;;5096506;28;20473;-80
2022/09/30 04:50:00;;;;;;;2.50;1.48;;;5.80;99.90;;;;;;5114220;28;20397;-79
2022/09/30 04:52:26;;;;;;;2.70;1.50;;;4.90;99.90;;;;;;5097161;28;20044;-79
2022/09/30 04:54:53;;;;;;;2.42;1.83;;;6.00;99.90;;;;;;5114588;28;20040;-79
2022/09/30 04:57:18;;;;;;;2.17;1.23;;;4.90;99.90;;;;;;5095744;28;20036;-79
2022/09/30 04:59:44;;;;;;;2.85;1.70;;;4.90;99.90;;;;;;5097940;28;20094;-79
2022/09/30 05:02:11;;;;;;;2.08;1.35;;;5.70;99.90;;;;;;5095589;28;20501;-79
2022/09/30 05:04:37;;;;;;;2.53;1.48;;;4.80;99.90;;;;;;5094076;28;20629;-79
2022/09/30 05:07:07;;;;;;;3.20;1.70;;;4.90;99.90;;;;;;5095050;28;20606;-81
2022/09/30 05:09:34;;;;;;;2.42;1.65;;;4.90;99.90;;;;;;5093642;28;20165;-81
2022/09/30 05:12:01;;;;;;;2.50;1.50;;;4.90;99.90;;;;;;5112407;28;20040;-81
2022/09/30 05:14:28;;;;;;;3.67;1.75;;;4.90;99.90;;;;;;5095792;28;20040;-81
2022/09/30 05:16:54;;;;;;;3.90;2.25;;;4.80;99.90;;;;;;5093609;28;20094;-81
2022/09/30 05:19:20;;;;;;;3.10;1.80;;;5.20;99.90;;;;;;5077035;28;20044;-81
2022/09/30 05:21:45;;;;;;;2.65;1.58;;;5.10;99.90;;;;;;5113972;28;20046;-81
2022/09/30 05:24:11;;;;;;;2.85;1.70;;;4.90;99.90;;;;;;5095963;28;20053;-81
2022/09/30 05:26:39;;;;;;;5.20;2.10;;;5.50;99.90;;;;;;5076685;28;20127;-81
2022/09/30 05:29:08;;;;;;;4.43;2.00;;;5.00;99.90;;;;;;5094627;28;20054;-81
2022/09/30 05:31:34;;;;;;;3.20;1.77;;;4.90;99.90;;;;;;5093904;28;20512;-81
2022/09/30 05:34:00;;;;;;;2.47;1.45;;;4.90;99.90;;;;;;5084810;28;20076;-80
2022/09/30 05:36:26;;;;;;;3.58;1.38;;;4.90;99.90;;;;;;5093968;28;20048;-80
2022/09/30 05:38:53;;;;;;;2.63;1.83;;;4.90;99.90;;;;;;5104342;28;20088;-81
2022/09/30 05:41:23;;;;;;;2.63;1.63;;;5.00;99.90;;;;;;5113790;28;20071;-80
2022/09/30 05:43:49;;;;;;;2.65;1.63;;;4.90;99.90;;;;;;5106512;28;20079;-79
2022/09/30 05:46:16;;;;;;;3.63;1.88;;;4.80;99.90;;;;;;5076706;28;20106;-81
2022/09/30 05:48:43;;;;;;;4.18;2.72;;;4.80;99.90;;;;;;5110184;28;20067;-80
2022/09/30 05:51:09;;;;;;;3.80;1.85;;;4.90;99.90;;;;;;5094434;28;20478;-79
2022/09/30 05:53:40;;;;;;;3.03;1.83;;;4.90;99.90;;;;;;5077911;28;20035;-80
2022/09/30 05:56:06;;;;;;;3.55;1.80;;;4.90;99.90;;;;;;5092856;28;20048;-80
2022/09/30 05:58:32;;;;;;;2.42;1.52;;;4.90;99.90;;;;;;5076155;28;20039;-79
2022/09/30 06:01:07;;;;;;;2.53;1.48;;;4.70;99.90;;;;;;5100313;28;20051;-79
2022/09/30 06:03:33;;;;;;;2.45;1.50;;;5.00;99.90;;;;;;5087904;28;20060;-79
2022/09/30 06:05:59;;;;;;;2.33;1.35;;;5.00;99.90;;;;;;5080258;28;20044;-79
2022/09/30 06:08:26;;;;;;;3.05;1.73;;;5.10;99.90;;;;;;5096279;28;20043;-79
2022/09/30 06:10:52;;;;;;;2.80;1.73;;;5.10;99.90;;;;;;5101768;28;20479;-79
2022/09/30 06:13:18;;;;;;;2.25;1.60;;;5.10;99.90;;;;;;5078523;28;20247;-80
2022/09/30 06:15:53;;;;;;;2.13;1.50;;;5.30;99.90;;;;;;5103212;28;20042;-81
2022/09/30 06:18:20;;;;;;;1.83;1.30;;;5.30;99.90;;;;;;5102256;28;20035;-81
2022/09/30 06:20:46;;;;;;;3.15;1.52;;;5.40;99.90;;;;;;5103892;28;20028;-81
2022/09/30 06:23:11;;;;;;;3.60;2.00;;;6.00;99.90;;;;;;5081584;28;20044;-81
2022/09/30 06:25:37;;;;;;;4.80;2.35;;;7.30;99.90;;;;;;5066246;28;20040;-81
2022/09/30 06:28:04;;;;;;;6.30;3.22;;;8.40;99.90;;;;;;5104498;28;20067;-81
2022/09/30 06:30:29;;;;;;;8.65;3.13;;;8.70;99.90;;;;;;5090272;28;20454;-81
2022/09/30 06:32:56;;;;;;;5.07;2.42;;;8.90;99.90;;;;;;5090416;28;20122;-81
2022/09/30 06:35:23;;;;;;;5.03;2.72;;;8.80;99.90;;;;;;5095334;28;20044;-81
2022/09/30 06:37:52;;;;;;;3.97;2.25;;;8.80;99.90;;;;;;5095045;28;20475;-81
2022/09/30 06:40:21;;;;;;;4.13;2.40;;;8.50;99.90;;;;;;5097309;28;20464;-81
2022/09/30 06:42:48;;;;;;;3.00;2.03;;;8.40;99.90;;;;;;5076336;28;20105;-81
2022/09/30 06:45:14;;;;;;;4.35;2.00;;;8.30;99.90;;;;;;5095008;28;20048;-81
2022/09/30 06:47:40;;;;;;;6.28;2.38;;;8.70;99.90;;;;;;5092916;28;20405;-79
2022/09/30 06:50:07;;;;;;;4.20;2.50;;;10.00;99.90;;;;;;5098985;28;20124;-79
2022/09/30 06:52:33;;;;;;;4.63;2.42;;;11.50;99.90;;;;;;5102321;28;20074;-79
2022/09/30 06:54:59;;;;;;;7.25;2.45;;;13.10;99.90;;;;;;5107456;28;20130;-79
2022/09/30 06:57:26;;;;;;;5.07;2.55;;;14.60;99.90;;;;;;5077299;28;20127;-79
2022/09/30 06:59:53;;;;;;;5.22;2.20;;;16.00;99.90;;;;;;5076162;28;20040;-79
2022/09/30 07:02:19;;;;;;;4.43;2.40;;;17.30;99.90;;;;;;5094160;28;20071;-79
2022/09/30 07:04:45;;;;;;;5.45;2.25;;;18.40;99.90;;;;;;5113346;28;20036;-81
2022/09/30 07:07:11;;;;;;;4.35;2.28;;;19.20;99.90;;;;;;5111372;28;20469;-81
2022/09/30 07:09:37;;;;;;;3.25;2.00;;;20.00;99.90;;;;;;5114527;28;20046;-81
2022/09/30 07:12:05;;;;;;;2.83;2.00;;;20.70;99.90;;;;;;5094714;28;20093;-81
2022/09/30 07:14:31;;;;;;;3.72;1.85;;;21.30;99.30;;;;;;5116401;28;20055;-81
2022/09/30 07:16:57;;;;;;;3.80;2.67;;;21.90;97.20;;;;;;5107756;28;20032;-81
2022/09/30 07:19:23;;;;;;;3.17;1.77;;;22.40;96.00;;;;;;5107048;28;20036;-82
2022/09/30 07:21:49;;;;;;;3.70;1.75;;;22.90;94.70;;;;;;5095977;28;20090;-80
2022/09/30 07:24:18;;;;;;;3.55;1.90;;;23.30;93.50;;;;;;5110295;28;20046;-81
2022/09/30 07:26:44;;;;;;;4.20;2.00;;;23.70;92.80;;;;;;5087964;28;20043;-80
2022/09/30 07:29:13;;;;;;;3.17;1.70;;;23.70;91.40;;;;;;5104826;28;20507;-80
2022/09/30 07:31:39;;;;;;;2.38;1.70;;;24.00;90.30;;;;;;5096911;28;20040;-80
2022/09/30 07:34:07;;;;;;;4.75;1.67;;;24.20;91.10;;;;;;5088319;28;20053;-80
2022/09/30 07:36:35;;;;;;;3.38;1.80;;;24.50;91.60;;;;;;5104472;28;20040;-82
2022/09/30 07:39:04;;;;;;;3.33;1.95;;;24.80;91.60;;;;;;5104983;28;20036;-82
2022/09/30 07:41:30;;;;;;;4.63;2.42;;;24.90;88.70;;;;;;5105572;28;20137;-81
2022/09/30 07:43:58;;;;;;;3.67;2.30;;;24.90;90.70;;;;;;5072687;28;20513;-82
2022/09/30 07:46:29;;;;;;;2.70;1.60;;;25.20;90.40;;;;;;5101592;28;20031;-81
2022/09/30 07:48:59;;;;;;;3.67;1.80;;;25.60;89.50;;;;;;5093758;28;20042;-82
2022/09/30 07:51:52;;;;;;;4.22;1.90;;;25.80;89.40;;;;;;5089182;28;20449;-81
2022/09/30 07:54:21;;;;;;;3.10;1.80;;;26.00;86.50;;;;;;5094711;28;20073;-82
2022/09/30 07:56:48;;;;;;;3.85;2.00;;;25.70;85.60;;;;;;5090895;22;20055;-82
2022/09/30 07:59:15;;;;;;;3.58;2.10;;;24.40;86.50;;;;;;5068916;28;20039;-82
2022/09/30 08:01:40;;;;;;;4.05;1.95;;;23.30;88.60;;;;;;5083535;28;20277;-82
2022/09/30 08:04:09;;;;;;;3.38;2.03;;;22.10;91.00;;;;;;5081894;28;20032;-82
2022/09/30 08:06:48;;;;;;;3.85;1.95;;;21.30;92.10;;;;;;5081473;28;20163;-82
2022/09/30 08:09:16;;;;;;;4.38;2.33;;;20.70;93.50;;;;;;5067254;28;20074;-82
2022/09/30 08:11:41;;;;;;;4.05;1.60;;;20.10;94.40;;;;;;5101081;28;20040;-79
2022/09/30 08:14:19;;;;;;;3.45;1.77;;;19.80;95.00;;;;;;5099417;28;20044;-79
2022/09/30 08:16:45;;;;;;;3.42;1.80;;;19.30;96.00;;;;;;5097256;28;20044;-79
2022/09/30 08:19:20;;;;;;;3.90;2.10;;;19.00;96.90;;;;;;5082390;28;20051;-79
2022/09/30 08:21:46;;;;;;;3.97;1.92;;;19.50;97.60;;;;;;5082741;28;20036;-79
2022/09/30 08:24:12;;;;;;;3.70;1.83;;;19.60;98.00;;;;;;5108595;28;20043;-79
2022/09/30 08:26:38;;;;;;;4.00;2.00;;;20.30;97.10;;;;;;5077769;28;20048;-82
2022/09/30 08:29:04;;;;;;;2.47;1.65;;;20.90;95.80;;;;;;5094627;28;20489;-82
2022/09/30 08:31:32;;;;;;;3.38;1.77;;;21.30;95.00;;;;;;5081396;28;20036;-82
2022/09/30 08:33:58;;;;;;;2.55;1.60;;;21.50;94.80;;;;;;5093254;28;20135;-82
2022/09/30 08:36:25;;;;;;;5.88;2.08;;;21.50;94.80;;;;;;5093274;28;20549;-82
2022/09/30 08:38:51;;;;;;;3.60;1.90;;;21.70;93.10;;;;;;5094544;28;20075;-82
2022/09/30 08:41:35;;;;;;;4.45;2.17;;;21.90;94.30;;;;;;5072388;28;20139;-82
2022/09/30 08:44:23;;;;;;;3.45;1.83;;;21.60;93.00;;;;;;5102058;28;20067;-82
2022/09/30 08:47:16;;;;;;;2.85;1.73;;;22.50;94.20;;;;;;5084772;28;20051;-81
2022/09/30 08:50:00;;;;;;;2.20;1.38;;;23.50;92.10;;;;;;5084332;28;20126;-81
2022/09/30 08:52:32;;;;;;;2.17;1.35;;;24.40;91.30;;;;;;5082791;28;20055;-81
2022/09/30 08:54:58;;;;;;;2.88;1.40;;;24.90;90.90;;;;;;5083388;28;20073;-82
2022/09/30 08:57:31;;;;;;;2.47;1.63;;;25.40;90.90;;;;;;5084524;28;20119;-81
2022/09/30 09:00:05;;;;;;;4.60;1.50;;;26.10;90.90;;;;;;5083792;28;20036;-82
2022/09/30 09:02:43;;;;;;;2.42;1.60;;;27.20;87.60;;;;;;5111088;28;20105;-83
2022/09/30 09:05:16;;;;;;;2.28;1.55;;;26.70;85.80;;;;;;5094133;28;20047;-86
2022/09/30 09:07:49;;;;;;;3.00;1.88;;;26.40;84.40;;;;;;5093682;28;20048;-80
2022/09/30 09:10:28;;;;;;;2.53;1.70;;;25.60;86.10;;;;;;5077024;28;20047;-83
2022/09/30 09:13:29;;;;;;;1.30;1.00;;;25.60;88.30;;;;;;5093940;28;20486;-80
2022/09/30 09:16:14;;;;;;;1.45;0.98;;;26.10;85.60;;;;;;5083452;28;20056;-79
2022/09/30 09:18:52;;;;;;;1.77;1.07;;;26.80;85.90;;;;;;5093437;28;20036;-78
2022/09/30 09:21:52;;;;;;;3.05;1.60;;;27.60;84.90;;;;;;5093736;28;20040;-80
2022/09/30 09:24:24;;;;;;;1.92;1.40;;;27.80;84.90;;;;;;5093736;28;20051;-78
2022/09/30 09:26:52;;;;;;;2.08;1.45;;;28.00;81.30;;;;;;5083444;28;20115;-78
2022/09/30 09:29:32;;;;;;;2.42;1.70;;;27.80;82.50;;;;;;5081802;28;20036;-78
2022/09/30 09:32:00;;;;;;;3.03;1.98;;;27.60;81.90;;;;;;5084659;28;20040;-79
2022/09/30 09:34:29;;;;;;;2.60;1.70;;;27.80;83.90;;;;;;5083023;28;20115;-78
2022/09/30 09:37:07;;;;;;;2.95;1.98;;;27.80;83.10;;;;;;5085007;28;20047;-78
2022/09/30 09:40:17;;;;;;;3.08;2.10;;;28.30;82.00;;;;;;5065982;28;20094;-78
2022/09/30 09:43:08;;;;;;;3.60;2.42;;;28.00;83.20;;;;;;5031180;28;20033;-78
2022/09/30 09:45:46;;;;;;;2.58;2.00;;;;;;;;;;5032292;28;20040;-78
2022/09/30 09:48:16;;;;;;;4.03;2.22;;;28.80;82.80;;;;;;5074273;28;20097;-78
2022/09/30 09:51:10;;;;;;;3.97;2.25;;;29.30;81.70;;;;;;5053522;28;20385;-78
2022/09/30 09:53:44;;;;;;;3.00;1.90;;;29.40;80.50;;;;;;5107586;28;20039;-78
2022/09/30 09:56:21;;;;;;;3.83;2.03;;;29.60;81.30;;;;;;5100008;28;20044;-78
2022/09/30 09:59:08;;;;;;;3.03;2.25;;;29.10;80.70;;;;;;5083345;28;20044;-78
2022/09/30 10:01:37;;;;;;;3.22;1.77;;;29.90;80.20;;;;;;5082137;28;20119;-78
2022/09/30 10:04:10;;;;;;;2.47;1.77;;;29.80;78.90;;;;;;5084408;28;20040;-78
2022/09/30 10:06:48;;;;;;;4.78;1.73;;;30.20;78.00;;;;;;5065172;28;20060;-80
2022/09/30 10:09:33;;;;;;;3.42;1.20;;;30.20;75.40;;;;;;5103143;28;20047;-80
2022/09/30 10:12:05;;;;;;;3.58;1.92;;;29.90;75.40;;;;;;5081538;28;20040;-80
2022/09/30 10:14:45;;;;;;;2.42;1.55;;;29.10;76.80;;;;;;5088162;28;20052;-80
2022/09/30 10:17:28;;;;;;;2.13;1.33;;;29.70;76.70;;;;;;5090543;28;20043;-80
2022/09/30 10:20:00;;;;;;;1.88;1.20;;;29.50;74.50;;;;;;5095925;28;20394;-80
2022/09/30 10:22:30;;;;;;;1.25;0.82;;;29.90;75.60;;;;;;5081955;28;20036;-80
2022/09/30 10:25:28;;;;;;;0.98;0.90;;;30.20;77.40;;;;;;5083358;28;20423;-79
2022/09/30 10:28:00;;;;;;;0.82;0.75;;;30.90;72.90;;;;;;5047533;28;20054;-79
2022/09/30 10:30:43;;;;;;;1.08;0.88;;;30.70;72.70;;;;;;5092117;28;20028;-79
2022/09/30 10:33:23;;;;;;;1.80;1.00;;;30.50;71.00;;;;;;5092600;28;20032;-79
2022/09/30 10:36:09;;;;;;;1.30;1.02;;;30.40;70.30;;;;;;5091089;28;20036;-78
2022/09/30 10:38:43;;;;;;;1.52;1.02;;;30.30;72.50;;;;;;5106373;28;20494;-79
2022/09/30 10:41:09;;;;;;;2.23;1.30;;;29.60;70.60;;;;;;5106652;28;20036;-79
2022/09/30 10:43:51;;;;;;;1.50;0.90;;;29.00;73.80;;;;;;5083239;28;20037;-78
2022/09/30 10:46:23;;;;;;;2.50;1.10;;;28.30;74.60;;;;;;5099145;28;20076;-78
2022/09/30 10:48:50;;;;;;;2.00;1.25;;;29.00;73.30;;;;;;5084191;28;20111;-78
2022/09/30 10:51:29;;;;;;;4.28;1.55;;;29.10;72.70;;;;;;5080702;28;20044;-78
2022/09/30 10:53:55;;;;;;;3.13;1.30;;;29.30;71.90;;;;;;5080639;28;20044;-79
2022/09/30 10:56:36;;;;;;;1.88;1.13;;;29.70;70.90;;;;;;5078291;28;20097;-80
2022/09/30 10:59:05;;;;;;;2.15;1.27;;;29.30;72.60;;;;;;5084882;28;20066;-80
2022/09/30 11:01:43;;;;;;;2.28;1.10;;;28.20;72.60;;;;;;5062688;28;20036;-80
2022/09/30 11:04:23;;;;;;;1.88;1.08;;;26.70;74.00;;;;;;5079070;28;20056;-80
2022/09/30 11:06:53;;;;;;;1.58;0.90;;;26.40;75.90;;;;;;5060452;28;20052;-80
2022/09/30 11:09:48;;;;;;;1.27;0.98;;;26.70;74.30;;;;;;5080858;28;20145;-80
2022/09/30 11:12:24;;;;;;;1.65;1.20;;;26.20;75.60;;;;;;5054960;28;20048;-83
2022/09/30 11:15:13;;;;;;;1.67;1.10;;;25.60;75.40;;;;;;5096243;28;20037;-81
2022/09/30 11:17:58;;;;;;;1.55;1.00;;;25.20;75.20;;;;;;5106143;28;20062;-81
2022/09/30 11:20:52;;;;;;;0.98;0.80;;;24.90;75.80;;;;;;5080835;28;20029;-81
2022/09/30 11:23:41;;;;;;;0.63;0.63;;;25.20;76.80;;;;;;5104943;28;20037;-78
2022/09/30 11:26:21;;;;;;;1.42;0.95;;;25.60;74.60;;;;;;5087032;28;20135;-78
2022/09/30 11:28:52;;;;;;;1.27;0.90;;;25.60;74.80;;;;;;5082476;28;20044;-78
2022/09/30 11:31:44;;;;;;;1.52;0.90;;;25.20;77.50;;;;;;5080684;28;20039;-80
2022/09/30 11:34:17;;;;;;;2.22;1.35;;;24.80;78.10;;;;;;5080182;28;20048;-80
2022/09/30 11:37:03;;;;;;;1.38;1.08;;;24.10;79.20;;;;;;5079337;28;20040;-80
2022/09/30 11:39:50;;;;;;;1.33;1.00;;;23.30;80.40;;;;;;5095472;28;20033;-80
2022/09/30 11:42:53;;;;;;;1.05;0.80;;;22.10;81.70;;;;;;5097467;28;20476;-80
2022/09/30 11:45:44;;;;;;;1.35;0.93;;;21.30;85.60;;;;;;5080658;28;20390;-80
2022/09/30 11:48:19;;;;;;;0.80;0.70;;;22.10;85.70;;;;;;5087669;28;20374;-80
2022/09/30 11:51:03;;;;;;;1.00;0.90;;;22.80;84.20;;;;;;5069796;28;20044;-80
2022/09/30 11:53:31;;;;;;;0.98;0.82;;;22.80;82.10;;;;;;5092948;28;20471;-77
2022/09/30 11:56:17;;;;;;;0.90;0.60;;;22.80;81.90;;;;;;5075587;28;20042;-78
2022/09/30 11:58:48;;;;;;;1.17;0.80;;;22.60;82.40;;;;;;5109222;28;20056;-77
2022/09/30 12:01:20;;;;;;;0.73;0.70;;;21.90;82.40;;;;;;5093102;28;20070;-77
2022/09/30 12:04:05;;;;;;;1.35;0.85;;;21.20;84.00;;;;;;5073271;28;20094;-78
2022/09/30 12:06:38;;;;;;;0.85;0.68;;;21.20;86.60;;;;;;5072993;28;20048;-78
2022/09/30 12:09:25;;;;;;;0.50;0.50;;;21.50;87.50;;;;;;5072924;28;20041;-78
2022/09/30 12:11:59;;;;;;;;;;;21.50;85.10;;;;;;5091726;28;20039;-78
2022/09/30 12:14:45;;;;;;;1.02;0.88;;;21.60;85.30;;;;;;5076240;28;20000;-78
2022/09/30 12:17:30;;;;;;;2.47;1.00;;;21.40;85.10;;;;;;5092961;28;20052;-78
2022/09/30 12:20:01;;;;;;;1.55;1.00;;;21.70;85.10;;;;;;5078078;28;20032;-79
2022/09/30 12:22:34;;;;;;;2.65;0.90;;;21.50;83.90;;;;;;5094815;28;20036;-80
2022/09/30 12:25:09;;;;;;;1.67;0.90;;;21.40;85.20;;;;;;5094963;28;20071;-80
2022/09/30 12:31:28;;;;;;;0.77;0.55;;;20.90;87.20;;;;;;5082604;28;20420;-80
2022/09/30 12:34:30;;;;;;;0.73;0.70;;;20.50;87.30;;;;;;5073019;28;20097;-80
2022/09/30 12:37:23;;;;;;;1.38;0.93;;;20.20;88.20;;;;;;5061264;28;20039;-77
2022/09/30 12:40:18;;;;;;;1.83;1.02;;;19.90;88.20;;;;;;5077588;28;20036;-77
2022/09/30 12:42:57;;;;;;;2.83;1.30;;;19.60;88.90;;;;;;5093463;28;20591;-77
2022/09/30 12:45:32;;;;;;;1.60;0.70;;;19.30;90.00;;;;;;5077770;28;20386;-77
2022/09/30 12:48:10;;;;;;;1.58;0.93;;;19.20;90.40;;;;;;5086901;28;20064;-77
2022/09/30 12:50:44;;;;;;;2.38;1.20;;;19.30;90.60;;;;;;5091525;28;20122;-77
2022/09/30 12:53:32;;;;;;;1.98;1.30;;;19.50;90.60;;;;;;5108753;28;20048;-77
2022/09/30 12:56:02;;;;;;;2.00;1.10;;;20.10;89.90;;;;;;5068819;28;20498;-77
2022/09/30 12:58:42;;;;;;;1.40;1.00;;;20.10;88.00;;;;;;5089131;28;20063;-77
2022/09/30 13:01:26;;;;;;;1.35;0.77;;;19.70;88.70;;;;;;5090981;28;20037;-77
2022/09/30 13:04:00;;;;;;;1.77;0.93;;;19.50;90.20;;;;;;5105658;28;20051;-78
2022/09/30 13:06:44;;;;;;;1.88;1.10;;;19.70;90.00;;;;;;5076944;28;20105;-77
2022/09/30 13:09:16;;;;;;;1.23;0.90;;;20.00;90.00;;;;;;5093887;28;20040;-80
2022/09/30 13:11:47;;;;;;;1.30;0.75;;;20.60;90.10;;;;;;5093902;28;20044;-80
2022/09/30 13:14:36;;;;;;;2.10;1.05;;;20.90;87.30;;;;;;5093486;28;20044;-79
2022/09/30 13:17:06;;;;;;;0.90;0.82;;;20.90;87.00;;;;;;5071891;28;20382;-79
2022/09/30 13:19:44;;;;;;;1.42;0.93;;;20.90;88.90;;;;;;5057125;28;20499;-80
2022/09/30 13:24:57;;;;;;;2.22;1.23;;;20.70;87.60;;;;;;5083460;28;20169;-80
2022/09/30 13:27:34;;;;;;;3.17;1.35;;;20.80;88.90;;;;;;5064077;28;20047;-80
2022/09/30 13:30:21;;;;;;;1.88;1.05;;;20.30;88.20;;;;;;5080588;28;20083;-80
2022/09/30 13:32:50;;;;;;;2.38;1.17;;;20.20;89.30;;;;;;5083240;28;20436;-80
2022/09/30 13:35:47;;;;;;;3.03;1.55;;;20.20;90.00;;;;;;5095530;28;20405;-79